| time (UTC) | temp F | wind direction | speed MPH | gust MPH | rain 1hr in | rain 24hr in | rain mn in | humidity % | barometer mb |
| 20260509230027 | 70 | 245 | 10.0 | 18.0 | 0.00 | 0.26 | 0.24 | 48 | 1007.7 |
| 20260509224526 | 70 | 238 | 8.0 | 14.0 | 0.00 | 0.26 | 0.24 | 51 | 1007.6 |
| 20260509223023 | 70 | 254 | 4.0 | 13.0 | 0.00 | 0.26 | 0.24 | 52 | 1007.4 |
| 20260509221551 | 70 | 202 | 8.0 | 15.0 | 0.00 | 0.26 | 0.24 | 53 | 1007.5 |
| 20260509220029 | 70 | 214 | 7.0 | 15.0 | 0.00 | 0.26 | 0.24 | 53 | 1007.6 |
| 20260509214527 | 70 | 263 | 5.0 | 13.0 | 0.00 | 0.26 | 0.24 | 53 | 1007.7 |
| 20260509213028 | 71 | 246 | 6.0 | 14.0 | 0.00 | 0.26 | 0.24 | 53 | 1007.9 |
| 20260509211526 | 71 | 207 | 5.0 | 15.0 | 0.00 | 0.26 | 0.24 | 52 | 1008.0 |
| 20260509210025 | 71 | 174 | 8.0 | 17.0 | 0.00 | 0.26 | 0.24 | 51 | 1007.9 |
| 20260509204523 | 71 | 254 | 5.0 | 14.0 | 0.00 | 0.26 | 0.24 | 52 | 1008.0 |
| 20260509203022 | 71 | 227 | 5.0 | 20.0 | 0.00 | 0.26 | 0.24 | 53 | 1008.2 |
| 20260509201520 | 70 | 252 | 7.0 | 15.0 | 0.00 | 0.26 | 0.24 | 54 | 1008.2 |
| 20260509200018 | 70 | 130 | 6.0 | 19.0 | 0.00 | 0.26 | 0.24 | 55 | 1008.5 |
| 20260509194516 | 70 | 198 | 5.0 | 12.0 | 0.00 | 0.26 | 0.24 | 56 | 1008.5 |
| 20260509193012 | 70 | 232 | 4.0 | 12.0 | 0.00 | 0.26 | 0.24 | 58 | 1008.5 |
| 20260509191527 | 69 | 277 | 4.0 | 13.0 | 0.00 | 0.26 | 0.24 | 60 | 1008.7 |
| 20260509190040 | 69 | 206 | 3.0 | 13.0 | 0.00 | 0.26 | 0.24 | 60 | 1008.8 |
| 20260509184531 | 68 | 237 | 5.0 | 12.0 | 0.00 | 0.26 | 0.24 | 60 | 1008.8 |
| 20260509183027 | 67 | 254 | 4.0 | 12.0 | 0.00 | 0.26 | 0.24 | 63 | 1009.0 |
| 20260509181516 | 66 | 252 | 4.0 | 10.0 | 0.00 | 0.26 | 0.24 | 62 | 1009.0 |
| 20260509180013 | 67 | 208 | 4.0 | 13.0 | 0.00 | 0.26 | 0.24 | 67 | 1009.2 |
| 20260509174512 | 65 | 220 | 4.0 | 15.0 | 0.00 | 0.26 | 0.24 | 69 | 1009.3 |
| 20260509173029 | 64 | 142 | 3.0 | 15.0 | 0.00 | 0.26 | 0.24 | 66 | 1009.3 |
| 20260509171526 | 64 | 236 | 6.0 | 12.0 | 0.00 | 0.26 | 0.24 | 68 | 1009.4 |
| 20260509170030 | 63 | 248 | 5.0 | 11.0 | 0.00 | 0.26 | 0.24 | 70 | 1009.4 |
| 20260509164519 | 63 | 207 | 5.0 | 11.0 | 0.00 | 0.26 | 0.24 | 72 | 1009.5 |
| 20260509163029 | 62 | 228 | 1.0 | 8.0 | 0.00 | 0.26 | 0.24 | 75 | 1009.5 |
| 20260509161526 | 62 | 229 | 4.0 | 11.0 | 0.00 | 0.26 | 0.24 | 74 | 1009.6 |
| 20260509160026 | 62 | 172 | 3.0 | 8.0 | 0.00 | 0.26 | 0.24 | 75 | 1009.4 |
| 20260509154527 | 61 | 195 | 3.0 | 10.0 | 0.00 | 0.26 | 0.24 | 77 | 1009.4 |
| 20260509153029 | 60 | 205 | 3.0 | 11.0 | 0.00 | 0.26 | 0.24 | 81 | 1009.4 |
| 20260509151522 | 59 | 165 | 4.0 | 10.0 | 0.00 | 0.26 | 0.24 | 84 | 1009.2 |
| 20260509150027 | 58 | 208 | 4.0 | 11.0 | 0.00 | 0.26 | 0.24 | 84 | 1009.1 |
| 20260509144529 | 58 | 225 | 2.0 | 8.0 | 0.00 | 0.26 | 0.24 | 87 | 1009.0 |
| 20260509143026 | 57 | 268 | 3.0 | 9.0 | 0.00 | 0.26 | 0.24 | 87 | 1009.0 |
| 20260509141534 | 57 | 185 | 2.0 | 7.0 | 0.00 | 0.26 | 0.24 | 88 | 1009.0 |
| 20260509140033 | 56 | 213 | 2.0 | 7.0 | 0.00 | 0.26 | 0.24 | 91 | 1008.9 |
| 20260509134508 | 55 | 227 | 2.0 | 7.0 | 0.00 | 0.26 | 0.24 | 92 | 1009.1 |
| 20260509133030 | 55 | 191 | 1.0 | 5.0 | 0.00 | 0.26 | 0.24 | 93 | 1009.2 |
| 20260509131522 | 54 | 189 | 3.0 | 6.0 | 0.02 | 0.26 | 0.24 | 94 | 1009.0 |
| 20260509130039 | 53 | 223 | 2.0 | 5.0 | 0.02 | 0.26 | 0.24 | 94 | 1009.0 |
| 20260509124527 | 53 | 262 | 0.0 | 3.0 | 0.02 | 0.26 | 0.24 | 94 | 1009.1 |
| 20260509123025 | 53 | 254 | 1.0 | 4.0 | 0.02 | 0.26 | 0.24 | 94 | 1008.7 |
| 20260509121515 | 53 | 246 | 1.0 | 4.0 | 0.00 | 0.24 | 0.22 | 94 | 1009.0 |
| 20260509120012 | 53 | 232 | 1.0 | 4.0 | 0.00 | 0.24 | 0.22 | 94 | 1009.0 |
| 20260509114525 | 53 | 220 | 0.0 | 5.0 | 0.00 | 0.24 | 0.22 | 93 | 1009.1 |
| 20260509113024 | 53 | 248 | 0.0 | 5.0 | 0.01 | 0.24 | 0.22 | 93 | 1009.1 |
| 20260509111520 | 53 | 236 | 3.0 | 6.0 | 0.02 | 0.24 | 0.22 | 94 | 1009.0 |
| 20260509110025 | 53 | 231 | 2.0 | 7.0 | 0.03 | 0.24 | 0.22 | 94 | 1009.2 |
| 20260509104516 | 53 | 223 | 2.0 | 8.0 | 0.04 | 0.24 | 0.22 | 94 | 1009.1 |
| 20260509103011 | 52 | 248 | 2.0 | 4.0 | 0.04 | 0.23 | 0.21 | 94 | 1009.2 |
| 20260509101526 | 52 | 232 | 3.0 | 5.0 | 0.03 | 0.22 | 0.20 | 94 | 1009.0 |
| 20260509100032 | 52 | 248 | 4.0 | 7.0 | 0.03 | 0.21 | 0.19 | 93 | 1009.0 |
| 20260509094524 | 52 | 229 | 2.0 | 6.0 | 0.02 | 0.20 | 0.18 | 93 | 1009.1 |
| 20260509093026 | 52 | 184 | 3.0 | 7.0 | 0.01 | 0.19 | 0.17 | 93 | 1009.2 |
| 20260509091520 | 53 | 234 | 2.0 | 6.0 | 0.02 | 0.19 | 0.17 | 93 | 1009.2 |
| 20260509090021 | 53 | 236 | 2.0 | 6.0 | 0.03 | 0.18 | 0.16 | 93 | 1009.3 |
| 20260509084515 | 52 | 205 | 2.0 | 5.0 | 0.05 | 0.18 | 0.16 | 93 | 1009.4 |
| 20260509083028 | 53 | 213 | 1.0 | 5.0 | 0.07 | 0.18 | 0.16 | 93 | 1009.5 |
| 20260509081538 | 53 | 191 | 1.0 | 4.0 | 0.08 | 0.17 | 0.15 | 93 | 1009.7 |
| 20260509080025 | 53 | 190 | 1.0 | 4.0 | 0.07 | 0.15 | 0.13 | 93 | 1009.7 |
| 20260509074520 | 53 | 186 | 1.0 | 4.0 | 0.07 | 0.13 | 0.11 | 92 | 1009.9 |
| 20260509073020 | 53 | 163 | 2.0 | 5.0 | 0.06 | 0.11 | 0.09 | 92 | 1009.9 |
| 20260509071519 | 53 | 153 | 0.0 | 2.0 | 0.05 | 0.09 | 0.07 | 92 | 1009.8 |
| 20260509070016 | 53 | 211 | 0.0 | 2.0 | 0.04 | 0.08 | 0.06 | 92 | 1009.9 |
| 20260509064529 | 52 | 228 | 0.0 | 2.0 | 0.02 | 0.06 | 0.04 | 92 | 1010.0 |
| 20260509063025 | 52 | 211 | 0.0 | 2.0 | 0.01 | 0.05 | 0.03 | 92 | 1010.3 |
| 20260509061524 | 52 | 192 | 0.0 | 0.0 | 0.01 | 0.04 | 0.02 | 92 | 1010.3 |
| 20260509060024 | 52 | 192 | 0.0 | 0.0 | 0.01 | 0.04 | 0.02 | 92 | 1010.5 |
| 20260509054532 | 52 | 192 | 0.0 | 0.0 | 0.02 | 0.04 | 0.02 | 92 | 1010.6 |
| 20260509053035 | 52 | 192 | 0.0 | 0.0 | 0.02 | 0.04 | 0.02 | 92 | 1010.6 |
| 20260509051528 | 52 | 234 | 0.0 | 0.0 | 0.01 | 0.03 | 0.01 | 92 | 1010.5 |
| 20260509050038 | 52 | 234 | 0.0 | 0.0 | 0.01 | 0.03 | 0.01 | 91 | 1010.6 |
| 20260509044528 | 52 | 262 | 0.0 | 0.0 | 0.00 | 0.02 | 0.00 | 91 | 1010.8 |
| 20260509043027 | 53 | 262 | 0.0 | 0.0 | 0.00 | 0.02 | 0.00 | 91 | 1010.7 |
| 20260509041526 | 53 | 262 | 0.0 | 0.0 | 0.00 | 0.02 | 0.00 | 91 | 1010.7 |
| 20260509040022 | 53 | 262 | 0.0 | 0.0 | 0.00 | 0.02 | 0.00 | 91 | 1011.0 |
| 20260509034516 | 53 | 262 | 0.0 | 0.0 | 0.00 | 0.02 | 0.02 | 90 | 1011.1 |
| 20260509033014 | 53 | 262 | 0.0 | 0.0 | 0.00 | 0.02 | 0.02 | 90 | 1011.1 |
| 20260509031512 | 53 | 262 | 0.0 | 0.0 | 0.00 | 0.02 | 0.02 | 89 | 1011.3 |
| 20260509030033 | 53 | 262 | 0.0 | 0.0 | 0.00 | 0.02 | 0.02 | 89 | 1011.5 |
| 20260509024523 | 53 | 262 | 0.0 | 0.0 | 0.00 | 0.02 | 0.02 | 88 | 1011.5 |
| 20260509023029 | 53 | 262 | 0.0 | 0.0 | 0.00 | 0.02 | 0.02 | 88 | 1011.4 |
| 20260509021519 | 53 | 262 | 0.0 | 0.0 | 0.01 | 0.02 | 0.02 | 88 | 1011.1 |
| 20260509020018 | 53 | 262 | 0.0 | 0.0 | 0.01 | 0.02 | 0.02 | 87 | 1011.1 |
| 20260509014515 | 54 | 262 | 0.0 | 0.0 | 0.02 | 0.02 | 0.02 | 85 | 1011.3 |
| 20260509013010 | 54 | 262 | 0.0 | 0.0 | 0.02 | 0.02 | 0.02 | 84 | 1011.2 |
| 20260509011530 | 55 | 262 | 0.0 | 0.0 | 0.01 | 0.01 | 0.01 | 83 | 1011.1 |
| 20260509010025 | 56 | 230 | 0.0 | 0.0 | 0.01 | 0.01 | 0.01 | 77 | 1010.9 |
| 20260509004527 | 57 | 230 | 0.0 | 0.0 | 0.00 | 0.00 | 0.00 | 74 | 1010.9 |
| 20260509003042 | 58 | 230 | 0.0 | 0.0 | 0.00 | 0.00 | 0.00 | 73 | 1010.9 |
| 20260509001516 | 59 | 230 | 0.0 | 0.0 | 0.00 | 0.00 | 0.00 | 68 | 1010.9 |
| 20260509000016 | 60 | 221 | 0.0 | 0.0 | 0.00 | 0.00 | 0.00 | 62 | 1010.7 |
| 20260508234528 | 61 | 221 | 0.0 | 2.0 | 0.00 | 0.00 | 0.00 | 57 | 1010.6 |
| 20260508233028 | 62 | 251 | 0.0 | 4.0 | 0.00 | 0.00 | 0.00 | 53 | 1010.4 |
| 20260508231526 | 62 | 211 | 1.0 | 10.0 | 0.00 | 0.00 | 0.00 | 51 | 1010.6 |